createdAt,value
2018-06-10T00:00:09.300Z,9.23
2018-06-10T00:02:40.961Z,11.10
2018-06-10T00:05:12.701Z,13.53
2018-06-10T00:07:44.264Z,8.60
2018-06-10T00:10:15.869Z,8.57
2018-06-10T00:12:47.448Z,11.47
2018-06-10T00:15:19.289Z,10.43
2018-06-10T00:17:50.790Z,12.37
2018-06-10T00:20:22.492Z,12.67
2018-06-10T00:22:54.031Z,8.90
2018-06-10T00:25:25.629Z,9.30
2018-06-10T00:27:57.225Z,8.80
2018-06-10T00:30:29.023Z,9.60
2018-06-10T00:33:00.562Z,9.00
2018-06-10T00:35:32.127Z,9.07
2018-06-10T00:38:03.852Z,8.00
2018-06-10T00:40:35.438Z,8.30
2018-06-10T00:43:07.251Z,8.43
2018-06-10T00:45:39.021Z,9.40
2018-06-10T00:48:10.606Z,11.93
2018-06-10T00:50:42.275Z,7.27
2018-06-10T00:53:13.881Z,8.80
2018-06-10T00:55:45.477Z,10.23
2018-06-10T00:58:17.093Z,6.47
2018-06-10T01:00:48.726Z,9.77
2018-06-10T01:03:20.445Z,10.27
2018-06-10T01:05:51.996Z,9.37
2018-06-10T01:08:24.586Z,11.33
2018-06-10T01:10:56.237Z,6.40
2018-06-10T01:13:27.663Z,8.97
2018-06-10T01:15:59.242Z,6.53
2018-06-10T01:18:30.857Z,8.73
2018-06-10T01:21:02.442Z,8.70
2018-06-10T01:23:34.029Z,11.20
2018-06-10T01:26:05.596Z,9.70
2018-06-10T01:28:37.067Z,8.20
2018-06-10T01:31:08.794Z,7.70
2018-06-10T01:33:40.277Z,9.93
2018-06-10T01:36:11.907Z,6.77
2018-06-10T01:38:45.350Z,6.83
2018-06-10T01:41:17.148Z,10.30
2018-06-10T01:43:48.808Z,7.83
2018-06-10T01:46:20.379Z,8.93
2018-06-10T01:48:51.969Z,9.70
2018-06-10T01:51:23.593Z,9.70
2018-06-10T01:53:55.069Z,10.00
2018-06-10T01:56:26.665Z,9.97
2018-06-10T01:58:58.289Z,10.40
2018-06-10T02:01:29.885Z,10.97
2018-06-10T02:04:01.553Z,12.27
2018-06-10T02:06:33.119Z,10.97
2018-06-10T02:09:06.153Z,12.57
2018-06-10T02:11:37.845Z,11.30
2018-06-10T02:14:09.405Z,10.77
2018-06-10T02:16:41.057Z,12.07
2018-06-10T02:19:12.550Z,10.10
2018-06-10T02:21:44.273Z,10.30
2018-06-10T02:24:15.816Z,9.10
2018-06-10T02:26:47.476Z,6.43
2018-06-10T02:29:19.166Z,8.90
2018-06-10T02:31:50.881Z,8.73
2018-06-10T02:34:22.391Z,8.47
2018-06-10T02:36:54.094Z,9.83
2018-06-10T02:39:25.629Z,12.90
2018-06-10T02:41:57.411Z,11.23
2018-06-10T02:44:28.909Z,8.27
2018-06-10T02:47:00.624Z,10.40
2018-06-10T02:49:32.173Z,12.40
2018-06-10T02:52:03.837Z,8.10
2018-06-10T02:54:35.445Z,9.27
2018-06-10T02:57:06.972Z,10.17
2018-06-10T02:59:38.429Z,9.90
2018-06-10T03:02:10.171Z,10.43
2018-06-10T03:04:41.700Z,10.27
2018-06-10T03:07:13.361Z,10.97
2018-06-10T03:09:44.901Z,8.47
2018-06-10T03:12:16.573Z,13.23
2018-06-10T03:14:48.073Z,10.30
2018-06-10T03:17:19.783Z,8.67
2018-06-10T03:19:51.319Z,9.80
2018-06-10T03:22:22.921Z,10.97
2018-06-10T03:24:54.393Z,12.03
2018-06-10T03:27:26.106Z,10.03
2018-06-10T03:29:57.879Z,9.07
2018-06-10T03:32:29.441Z,9.60
2018-06-10T03:35:01.070Z,10.70
2018-06-10T03:37:32.725Z,8.87
2018-06-10T03:40:06.048Z,11.03
2018-06-10T03:42:37.815Z,11.73
2018-06-10T03:45:09.500Z,12.17
2018-06-10T03:47:41.119Z,12.27
2018-06-10T03:50:12.712Z,15.57
2018-06-10T03:52:44.329Z,10.80
2018-06-10T03:55:15.809Z,10.30
2018-06-10T03:57:47.509Z,11.47
2018-06-10T04:00:19.057Z,13.00
2018-06-10T04:02:50.780Z,8.03
2018-06-10T04:05:22.368Z,13.60
2018-06-10T04:07:53.929Z,9.50
2018-06-10T04:10:25.545Z,7.03
2018-06-10T04:12:57.053Z,9.73
2018-06-10T04:15:28.599Z,17.83
2018-06-10T04:17:59.768Z,19.20
2018-06-10T04:20:31.252Z,15.17
2018-06-10T04:23:02.973Z,12.60
2018-06-10T04:25:34.839Z,13.27
2018-06-10T04:28:06.480Z,16.90
2018-06-10T04:30:38.193Z,12.27
2018-06-10T04:33:09.810Z,11.17
2018-06-10T04:35:41.601Z,9.13
2018-06-10T04:38:13.216Z,6.27
2018-06-10T04:40:44.868Z,8.10
2018-06-10T04:43:16.607Z,6.33
2018-06-10T04:45:48.226Z,7.07
2018-06-10T04:48:19.848Z,7.97
2018-06-10T04:50:51.494Z,8.60
2018-06-10T04:53:23.143Z,12.23
2018-06-10T04:55:54.794Z,7.30
2018-06-10T04:58:26.530Z,7.43
2018-06-10T05:00:58.295Z,10.63
2018-06-10T05:03:29.969Z,5.83
2018-06-10T05:06:01.496Z,5.63
2018-06-10T05:08:33.073Z,5.67
2018-06-10T05:11:04.690Z,10.57
2018-06-10T05:13:36.313Z,6.77
2018-06-10T05:16:08.009Z,7.30
2018-06-10T05:18:39.625Z,5.10
2018-06-10T05:21:11.101Z,5.27
2018-06-10T05:23:42.804Z,5.57
2018-06-10T05:26:14.473Z,6.77
2018-06-10T05:28:46.126Z,8.20
2018-06-10T05:31:17.723Z,12.13
2018-06-10T05:33:49.444Z,10.13
2018-06-10T05:36:20.968Z,9.03
2018-06-10T05:38:52.636Z,8.40
2018-06-10T05:41:24.182Z,5.40
2018-06-10T05:43:55.746Z,9.00
2018-06-10T05:46:27.368Z,7.80
2018-06-10T05:48:58.953Z,6.87
2018-06-10T05:51:30.594Z,7.13
2018-06-10T05:54:02.200Z,7.03
2018-06-10T05:56:33.669Z,8.33
2018-06-10T05:59:05.387Z,9.50
2018-06-10T06:01:36.889Z,14.30
2018-06-10T06:04:08.498Z,13.77
2018-06-10T06:06:40.023Z,10.87
2018-06-10T06:09:11.593Z,12.00
2018-06-10T06:11:43.220Z,10.97
2018-06-10T06:14:14.849Z,20.17
2018-06-10T06:16:46.532Z,9.13
2018-06-10T06:19:18.153Z,11.80
2018-06-10T06:21:49.637Z,14.73
2018-06-10T06:24:21.345Z,18.07
2018-06-10T06:26:52.997Z,11.83
2018-06-10T06:29:24.690Z,10.77
2018-06-10T06:31:56.281Z,9.63
2018-06-10T06:34:27.961Z,17.00
2018-06-10T06:36:59.581Z,19.67
2018-06-10T06:39:31.171Z,12.03
2018-06-10T06:42:02.789Z,10.77
2018-06-10T06:44:34.414Z,14.67
2018-06-10T06:47:05.927Z,11.43
2018-06-10T06:49:37.702Z,11.73
2018-06-10T06:52:09.229Z,9.73
2018-06-10T06:54:40.789Z,7.13
2018-06-10T06:57:12.417Z,12.40
2018-06-10T06:59:44.013Z,15.27
2018-06-10T07:02:15.624Z,11.33
2018-06-10T07:04:47.217Z,13.53
2018-06-10T07:07:18.899Z,15.00
2018-06-10T07:09:50.540Z,21.83
2018-06-10T07:12:21.659Z,12.40
2018-06-10T07:14:53.214Z,8.10
2018-06-10T07:17:24.841Z,6.73
2018-06-10T07:19:56.553Z,7.23
2018-06-10T07:22:28.115Z,11.90
2018-06-10T07:24:59.823Z,11.43
2018-06-10T07:27:31.473Z,10.30
2018-06-10T07:30:03.073Z,9.33
2018-06-10T07:32:34.690Z,11.20
2018-06-10T07:35:06.398Z,11.43
2018-06-10T07:37:38.000Z,10.67
2018-06-10T07:40:09.594Z,8.93
2018-06-10T07:42:41.264Z,8.73
2018-06-10T07:45:12.909Z,10.67
2018-06-10T07:47:44.541Z,10.60
2018-06-10T07:50:16.324Z,12.40
2018-06-10T07:52:47.873Z,8.27
2018-06-10T07:55:19.514Z,6.03
2018-06-10T07:57:51.180Z,4.93
2018-06-10T08:00:22.843Z,6.40
2018-06-10T08:02:54.504Z,6.77
2018-06-10T08:05:26.165Z,8.00
2018-06-10T08:07:57.816Z,6.50
2018-06-10T08:10:29.485Z,8.40
2018-06-10T08:13:00.917Z,5.73
2018-06-10T08:15:32.639Z,5.23
2018-06-10T08:18:04.225Z,7.60
2018-06-10T08:20:35.805Z,8.57
2018-06-10T08:23:07.538Z,7.77
2018-06-10T08:25:39.206Z,8.40
2018-06-10T08:28:10.697Z,7.87
2018-06-10T08:30:42.311Z,7.73
2018-06-10T08:33:13.960Z,8.57
2018-06-10T08:35:45.544Z,9.07
2018-06-10T08:38:16.650Z,7.70
2018-06-10T08:40:48.153Z,7.70
2018-06-10T08:43:19.640Z,5.90
2018-06-10T08:45:56.337Z,5.87
2018-06-10T08:48:28.474Z,4.33
2018-06-10T08:51:00.133Z,4.40
2018-06-10T08:53:31.786Z,4.20
2018-06-10T08:56:03.488Z,6.60
2018-06-10T08:58:35.093Z,6.20
2018-06-10T09:01:06.800Z,3.97
2018-06-10T09:03:38.431Z,3.53
2018-06-10T09:06:10.042Z,3.10
2018-06-10T09:08:41.616Z,4.40
2018-06-10T09:11:13.327Z,4.60
2018-06-10T09:13:44.825Z,5.00
2018-06-10T09:16:16.637Z,5.10
2018-06-10T09:18:48.291Z,4.53
2018-06-10T09:21:19.950Z,4.93
2018-06-10T09:23:51.476Z,2.67
2018-06-10T09:26:23.058Z,4.73
2018-06-10T09:28:54.733Z,5.63
2018-06-10T09:31:26.469Z,6.03
2018-06-10T09:33:58.350Z,6.13
2018-06-10T09:36:29.893Z,4.60
2018-06-10T09:39:01.653Z,4.70
2018-06-10T09:41:33.305Z,3.47
2018-06-10T09:44:05.225Z,3.47
2018-06-10T09:46:36.924Z,5.70
2018-06-10T09:49:08.645Z,5.80
2018-06-10T09:51:40.397Z,5.10
2018-06-10T09:54:12.152Z,4.40
2018-06-10T09:56:43.784Z,4.50
2018-06-10T09:59:15.283Z,5.40
2018-06-10T10:01:47.022Z,4.90
2018-06-10T10:04:18.604Z,4.93
2018-06-10T10:06:50.276Z,4.90
2018-06-10T10:09:21.916Z,4.67
2018-06-10T10:11:53.514Z,5.10
2018-06-10T10:14:25.263Z,4.63
2018-06-10T10:16:56.924Z,4.87
2018-06-10T10:19:28.613Z,4.33
2018-06-10T10:22:00.321Z,3.37
2018-06-10T10:24:31.858Z,4.47
2018-06-10T10:27:03.434Z,6.90
2018-06-10T10:29:35.300Z,5.03
2018-06-10T10:32:07.046Z,4.00
2018-06-10T10:34:38.597Z,5.83
2018-06-10T10:37:10.292Z,5.93
2018-06-10T10:39:42.177Z,4.77
2018-06-10T10:42:13.802Z,3.80
2018-06-10T10:44:45.305Z,5.57
2018-06-10T10:47:16.873Z,4.63
2018-06-10T10:49:55.305Z,4.40
2018-06-10T10:52:28.853Z,123.90
2018-06-10T10:55:00.783Z,368.37
2018-06-10T10:57:32.530Z,278.77
2018-06-10T11:00:04.263Z,607.93
2018-06-10T11:02:35.982Z,320.47
2018-06-10T11:05:09.717Z,531.20
2018-06-10T11:07:41.553Z,301.33
2018-06-10T11:10:12.825Z,558.80
2018-06-10T11:12:44.117Z,444.67
2018-06-10T11:15:15.341Z,70.07
2018-06-10T11:17:46.920Z,35.67
2018-06-10T11:20:18.253Z,110.53
2018-06-10T11:22:49.913Z,170.47
2018-06-10T11:25:21.529Z,18.73
2018-06-10T11:27:53.280Z,46.40
2018-06-10T11:30:24.850Z,70.40
2018-06-10T11:32:56.461Z,195.43
2018-06-10T11:35:28.040Z,172.53
2018-06-10T11:37:59.789Z,111.30
2018-06-10T11:40:31.233Z,16.37
2018-06-10T11:43:03.044Z,9.37
2018-06-10T11:45:34.724Z,7.67
2018-06-10T11:48:06.369Z,6.23
2018-06-10T11:50:37.483Z,10.53
2018-06-10T11:53:09.057Z,5.43
2018-06-10T11:55:40.781Z,6.97
2018-06-10T11:58:12.458Z,5.00
2018-06-10T12:00:44.009Z,3.83
2018-06-10T12:03:15.619Z,4.40
2018-06-10T12:05:47.297Z,3.90
2018-06-10T12:08:18.934Z,4.27
2018-06-10T12:10:50.575Z,5.00
2018-06-10T12:13:22.109Z,3.87
2018-06-10T12:15:53.767Z,3.57
2018-06-10T12:18:25.425Z,3.30
2018-06-10T12:20:57.038Z,2.40
2018-06-10T12:23:28.512Z,3.87
2018-06-10T12:26:00.085Z,4.27
2018-06-10T12:28:31.750Z,3.13
2018-06-10T12:31:03.290Z,4.50
2018-06-10T12:33:34.873Z,4.87
2018-06-10T12:36:06.365Z,4.23
2018-06-10T12:38:37.986Z,3.93
2018-06-10T12:41:09.818Z,4.10
2018-06-10T12:43:41.406Z,3.27
2018-06-10T12:46:13.192Z,4.13
2018-06-10T12:48:44.788Z,3.70
2018-06-10T12:51:16.296Z,5.43
2018-06-10T12:53:47.913Z,5.47
2018-06-10T12:56:19.500Z,4.27
2018-06-10T12:58:51.313Z,4.10
2018-06-10T13:01:23.619Z,3.40
2018-06-10T13:03:55.444Z,2.80
2018-06-10T13:06:26.950Z,6.17
2018-06-10T13:08:58.662Z,5.10
2018-06-10T13:11:39.742Z,5.37
2018-06-10T13:14:20.934Z,3.90
2018-06-10T13:17:04.401Z,5.73
2018-06-10T13:19:36.822Z,6.37
2018-06-10T13:22:20.318Z,4.53
2018-06-10T13:25:09.245Z,5.20
2018-06-10T13:27:51.356Z,5.30
2018-06-10T13:30:36.211Z,4.40
2018-06-10T13:33:15.374Z,5.50
2018-06-10T13:36:01.992Z,3.93
2018-06-10T13:38:44.501Z,3.57
2018-06-10T13:41:18.954Z,3.87
2018-06-10T13:43:50.573Z,6.07
2018-06-10T13:46:22.190Z,4.63
2018-06-10T13:48:53.773Z,4.00
2018-06-10T13:51:25.037Z,5.70
2018-06-10T13:53:56.396Z,5.30
2018-06-10T13:56:27.704Z,5.90
2018-06-10T13:58:59.426Z,4.93
2018-06-10T14:01:31.193Z,3.80
2018-06-10T14:04:02.879Z,3.33
2018-06-10T14:06:34.667Z,4.20
2018-06-10T14:09:07.698Z,5.13
2018-06-10T14:11:39.352Z,6.20
2018-06-10T14:14:10.971Z,4.93
2018-06-10T14:16:42.578Z,5.37
2018-06-10T14:19:14.094Z,4.87
2018-06-10T14:21:45.713Z,5.77
2018-06-10T14:24:17.425Z,3.70
2018-06-10T14:26:48.599Z,3.40
2018-06-10T14:29:20.073Z,3.87
2018-06-10T14:31:52.970Z,4.70
2018-06-10T14:34:25.097Z,4.20
2018-06-10T14:36:57.198Z,5.70
2018-06-10T14:39:29.651Z,5.13
2018-06-10T14:42:01.304Z,6.97
2018-06-10T14:44:32.913Z,7.33
2018-06-10T14:47:05.074Z,7.23
2018-06-10T14:49:36.968Z,6.37
2018-06-10T14:52:08.674Z,6.50
2018-06-10T14:54:40.268Z,6.33
2018-06-10T14:57:11.961Z,6.80
2018-06-10T14:59:43.509Z,6.60
2018-06-10T15:02:15.318Z,6.00
2018-06-10T15:04:46.902Z,6.80
2018-06-10T15:07:18.552Z,5.57
2018-06-10T15:09:50.110Z,5.50
2018-06-10T15:12:21.661Z,6.37
2018-06-10T15:14:53.420Z,6.00
2018-06-10T15:17:24.720Z,4.40
2018-06-10T15:19:56.240Z,5.40
2018-06-10T15:22:27.777Z,5.33
2018-06-10T15:24:59.334Z,4.10
2018-06-10T15:27:30.984Z,3.70
2018-06-10T15:30:02.565Z,3.27
2018-06-10T15:32:34.362Z,3.53
2018-06-10T15:35:06.158Z,2.83
2018-06-10T15:37:37.713Z,3.70
2018-06-10T15:40:17.792Z,4.00
2018-06-10T15:42:58.310Z,3.23
2018-06-10T15:45:38.993Z,5.10
2018-06-10T15:48:21.378Z,4.83
2018-06-10T15:51:01.978Z,5.17
2018-06-10T15:53:42.885Z,6.43
2018-06-10T15:59:18.410Z,5.30
2018-06-10T16:01:59.944Z,5.10
2018-06-10T16:04:41.999Z,5.40
2018-06-10T16:07:14.442Z,5.70
2018-06-10T16:09:54.930Z,5.47
2018-06-10T16:12:35.719Z,6.23
2018-06-10T16:15:17.674Z,5.70
2018-06-10T16:17:57.325Z,4.70
2018-06-10T16:20:37.142Z,5.47
2018-06-10T16:23:18.704Z,5.17
2018-06-10T16:25:59.773Z,5.30
2018-06-10T16:28:35.571Z,5.00
2018-06-10T16:31:07.351Z,4.23
2018-06-10T16:33:39.039Z,3.63
2018-06-10T16:36:10.511Z,5.20
2018-06-10T16:38:42.101Z,4.20
2018-06-10T16:41:13.705Z,4.10
2018-06-10T16:43:45.232Z,2.93
2018-06-10T16:46:16.811Z,4.77
2018-06-10T16:48:48.321Z,4.10
2018-06-10T16:51:19.936Z,3.93
2018-06-10T16:53:51.454Z,4.87
2018-06-10T16:56:23.143Z,4.47
2018-06-10T16:58:54.661Z,3.90
2018-06-10T17:01:26.242Z,7.13
2018-06-10T17:03:57.756Z,3.80
2018-06-10T17:06:29.446Z,4.80
2018-06-10T17:09:00.721Z,3.40
2018-06-10T17:11:32.409Z,3.90
2018-06-10T17:14:04.180Z,4.13
2018-06-10T17:16:35.894Z,3.57
2018-06-10T17:19:07.477Z,3.13
2018-06-10T17:21:39.173Z,3.03
2018-06-10T17:24:10.679Z,4.30
2018-06-10T17:26:42.283Z,3.70
2018-06-10T17:29:13.901Z,4.17
2018-06-10T17:31:45.495Z,3.03
2018-06-10T17:34:17.213Z,2.57
2018-06-10T17:36:48.816Z,2.60
2018-06-10T17:39:20.303Z,2.80
2018-06-10T17:41:51.901Z,2.60
2018-06-10T17:44:23.616Z,3.00
2018-06-10T17:46:55.271Z,2.80
2018-06-10T17:49:27.022Z,5.33
2018-06-10T17:51:58.479Z,4.07
2018-06-10T17:54:30.131Z,5.07
2018-06-10T17:57:01.810Z,3.83
2018-06-10T17:59:33.413Z,4.10
2018-06-10T18:02:05.155Z,3.50
2018-06-10T18:04:36.886Z,4.13
2018-06-10T18:07:08.520Z,3.30
2018-06-10T18:09:40.147Z,2.73
2018-06-10T18:12:11.261Z,2.70
2018-06-10T18:14:42.724Z,4.00
2018-06-10T18:17:14.392Z,2.93
2018-06-10T18:19:45.977Z,3.37
2018-06-10T18:22:17.699Z,3.23
2018-06-10T18:24:49.297Z,2.73
2018-06-10T18:27:20.838Z,3.17
2018-06-10T18:29:52.621Z,2.57
2018-06-10T18:32:24.329Z,2.47
2018-06-10T18:34:55.310Z,3.47
2018-06-10T18:37:26.929Z,3.23
2018-06-10T18:39:58.583Z,2.83
2018-06-10T18:42:30.165Z,3.40
2018-06-10T18:45:01.440Z,3.00
2018-06-10T18:47:33.247Z,3.47
2018-06-10T18:50:04.998Z,3.30
2018-06-10T18:52:36.676Z,3.60
2018-06-10T18:55:08.233Z,3.40
2018-06-10T18:57:39.873Z,4.30
2018-06-10T19:00:11.454Z,4.40
2018-06-10T19:02:43.252Z,6.53
2018-06-10T19:05:14.858Z,6.13
2018-06-10T19:07:46.386Z,5.20
2018-06-10T19:10:18.113Z,5.60
2018-06-10T19:12:49.702Z,4.57
2018-06-10T19:15:21.372Z,5.00
2018-06-10T19:17:52.536Z,5.07
2018-06-10T19:20:24.267Z,5.57
2018-06-10T19:22:55.709Z,4.70
2018-06-10T19:25:27.516Z,4.37
2018-06-10T19:27:58.897Z,5.60
2018-06-10T19:30:30.645Z,4.47
2018-06-10T19:33:02.247Z,5.77
2018-06-10T19:35:33.902Z,5.30
2018-06-10T19:38:05.471Z,5.37
2018-06-10T19:40:37.114Z,6.20
2018-06-10T19:43:08.690Z,5.70
2018-06-10T19:45:40.377Z,5.30
2018-06-10T19:48:12.133Z,6.47
2018-06-10T19:50:43.965Z,5.53
2018-06-10T19:53:15.517Z,7.37
2018-06-10T19:55:47.071Z,5.83
2018-06-10T19:58:18.822Z,7.03
2018-06-10T20:00:50.370Z,7.03
2018-06-10T20:03:22.152Z,5.13
2018-06-10T20:05:54.147Z,5.93
2018-06-10T20:08:25.853Z,6.40
2018-06-10T20:10:57.209Z,5.10
2018-06-10T20:13:28.752Z,7.00
2018-06-10T20:16:00.325Z,7.77
2018-06-10T20:18:31.956Z,5.57
2018-06-10T20:21:03.664Z,8.07
2018-06-10T20:23:35.374Z,6.50
2018-06-10T20:26:07.045Z,8.73
2018-06-10T20:28:38.744Z,7.07
2018-06-10T20:31:10.353Z,6.20
2018-06-10T20:33:41.899Z,8.53
2018-06-10T20:36:13.453Z,8.53
2018-06-10T20:38:44.577Z,7.63
2018-06-10T20:41:16.108Z,8.43
2018-06-10T20:43:47.801Z,6.07
2018-06-10T20:46:19.459Z,6.57
2018-06-10T20:48:51.132Z,4.43
2018-06-10T20:51:22.769Z,6.07
2018-06-10T20:53:54.493Z,5.27
2018-06-10T20:56:26.082Z,5.13
2018-06-10T20:58:57.743Z,7.23
2018-06-10T21:01:29.393Z,5.03
2018-06-10T21:04:01.363Z,9.07
2018-06-10T21:06:33.054Z,7.17
2018-06-10T21:09:05.010Z,7.57
2018-06-10T21:11:36.565Z,7.63
2018-06-10T21:14:08.187Z,8.63
2018-06-10T21:16:39.778Z,7.83
2018-06-10T21:19:11.458Z,5.97
2018-06-10T21:21:43.181Z,7.53
2018-06-10T21:24:14.821Z,6.00
2018-06-10T21:26:46.291Z,5.77
2018-06-10T21:29:17.813Z,7.10
2018-06-10T21:31:49.406Z,7.83
2018-06-10T21:34:20.998Z,7.47
2018-06-10T21:36:52.691Z,6.97
2018-06-10T21:39:24.221Z,6.93
2018-06-10T21:41:55.779Z,7.23
2018-06-10T21:44:27.337Z,6.30
2018-06-10T21:46:59.009Z,6.90
2018-06-10T21:49:30.565Z,7.93
2018-06-10T21:52:02.110Z,6.90
2018-06-10T21:54:33.741Z,9.03
2018-06-10T21:57:05.432Z,8.53
2018-06-10T21:59:37.088Z,11.23
2018-06-10T22:02:08.847Z,7.73
2018-06-10T22:04:40.378Z,7.10
2018-06-10T22:07:11.962Z,8.10
2018-06-10T22:09:43.610Z,6.37
2018-06-10T22:12:15.269Z,6.07
2018-06-10T22:14:46.792Z,6.03
2018-06-10T22:17:18.472Z,8.40
2018-06-10T22:19:50.101Z,7.77
2018-06-10T22:22:21.793Z,8.40
2018-06-10T22:24:53.337Z,11.83
2018-06-10T22:27:24.917Z,10.90
2018-06-10T22:29:56.398Z,8.33
2018-06-10T22:32:27.934Z,8.70
2018-06-10T22:34:59.521Z,9.00
2018-06-10T22:37:31.141Z,9.40
2018-06-10T22:40:02.669Z,8.73
2018-06-10T22:42:34.249Z,6.83
2018-06-10T22:45:05.852Z,7.73
2018-06-10T22:47:37.597Z,7.57
2018-06-10T22:50:09.249Z,8.70
2018-06-10T22:52:40.868Z,9.23
2018-06-10T22:55:12.353Z,10.67
2018-06-10T22:57:44.056Z,7.07
2018-06-10T23:00:15.813Z,8.43
2018-06-10T23:02:47.510Z,7.90
2018-06-10T23:05:19.088Z,7.77
2018-06-10T23:07:50.701Z,9.13
2018-06-10T23:10:22.192Z,8.80
2018-06-10T23:12:53.901Z,10.20
2018-06-10T23:15:25.434Z,9.37
2018-06-10T23:17:56.992Z,8.07
2018-06-10T23:20:28.682Z,7.23
2018-06-10T23:23:00.234Z,6.03
2018-06-10T23:25:31.750Z,9.30
2018-06-10T23:28:03.426Z,7.97
2018-06-10T23:30:35.029Z,8.43
2018-06-10T23:33:06.660Z,8.90
2018-06-10T23:35:38.134Z,10.57
2018-06-10T23:38:09.846Z,9.10
2018-06-10T23:40:41.501Z,9.90
2018-06-10T23:43:13.162Z,8.00
2018-06-10T23:45:44.702Z,8.80
2018-06-10T23:48:16.425Z,8.00
2018-06-10T23:50:48.005Z,9.00
2018-06-10T23:53:19.569Z,10.80
2018-06-10T23:55:51.076Z,8.67
2018-06-10T23:58:23.005Z,9.23
